createdAt,value
2022-12-16T00:02:21.637Z,41.33
2022-12-16T00:06:38.729Z,38.65
2022-12-16T00:10:59.935Z,40.40
2022-12-16T00:15:17.169Z,38.95
2022-12-16T00:19:34.259Z,37.45
2022-12-16T00:23:51.346Z,37.93
2022-12-16T00:28:08.575Z,36.88
2022-12-16T00:32:25.674Z,39.03
2022-12-16T00:36:43.753Z,38.53
2022-12-16T00:41:01.004Z,37.22
2022-12-16T00:45:18.640Z,34.05
2022-12-16T00:49:35.836Z,33.55
2022-12-16T00:53:52.966Z,30.67
2022-12-16T00:58:11.299Z,30.63
2022-12-16T01:02:28.523Z,29.25
2022-12-16T01:06:47.132Z,28.95
2022-12-16T01:11:04.546Z,30.63
2022-12-16T01:15:21.648Z,30.83
2022-12-16T01:19:38.767Z,28.05
2022-12-16T01:23:55.876Z,30.50
2022-12-16T01:28:13.009Z,29.03
2022-12-16T01:32:30.191Z,29.83
2022-12-16T01:36:47.290Z,27.88
2022-12-16T01:41:05.511Z,29.70
2022-12-16T01:45:29.291Z,28.17
2022-12-16T01:49:54.936Z,27.38
2022-12-16T01:54:28.871Z,26.80
2022-12-16T01:58:46.427Z,27.20
2022-12-16T02:03:04.786Z,27.75
2022-12-16T02:07:21.982Z,26.35
2022-12-16T02:12:24.963Z,25.47
2022-12-16T02:16:59.464Z,26.70
2022-12-16T02:21:16.617Z,25.90
2022-12-16T02:25:51.556Z,25.17
2022-12-16T02:30:27.355Z,25.73
2022-12-16T02:35:01.239Z,25.75
2022-12-16T02:39:25.381Z,25.05
2022-12-16T02:44:10.127Z,25.35
2022-12-16T02:48:27.308Z,26.48
2022-12-16T02:52:44.776Z,25.42
2022-12-16T02:57:39.943Z,26.35
2022-12-16T03:02:22.524Z,26.60
2022-12-16T03:06:43.696Z,26.60
2022-12-16T03:11:04.648Z,27.27
2022-12-16T03:15:25.560Z,25.58
2022-12-16T03:19:48.573Z,26.50
2022-12-16T03:24:08.586Z,25.85
2022-12-16T03:28:36.526Z,27.58
2022-12-16T03:33:02.368Z,27.67
2022-12-16T03:37:22.337Z,29.20
2022-12-16T03:41:40.932Z,29.15
2022-12-16T03:46:04.119Z,26.42
2022-12-16T03:50:26.478Z,28.40
2022-12-16T03:54:43.561Z,29.42
2022-12-16T03:59:00.643Z,29.00
2022-12-16T04:03:17.843Z,30.23
2022-12-16T04:07:35.379Z,29.30
2022-12-16T04:12:11.454Z,30.55
2022-12-16T04:16:48.480Z,29.85
2022-12-16T04:21:24.596Z,31.77
2022-12-16T04:25:41.691Z,31.42
2022-12-16T04:30:17.546Z,30.77
2022-12-16T04:34:34.642Z,31.65
2022-12-16T04:39:10.446Z,33.40
2022-12-16T04:43:46.283Z,32.28
2022-12-16T04:48:22.562Z,33.05
2022-12-16T04:52:58.395Z,33.00
2022-12-16T04:57:34.149Z,34.58
2022-12-16T05:02:09.986Z,33.75
2022-12-16T05:06:46.094Z,33.53
2022-12-16T05:11:22.636Z,34.10
2022-12-16T05:15:59.140Z,35.35
2022-12-16T05:20:35.142Z,34.92
2022-12-16T05:25:11.097Z,36.80
2022-12-16T05:29:47.390Z,35.25
2022-12-16T05:34:23.264Z,36.72
2022-12-16T05:38:59.333Z,37.60
2022-12-16T05:43:35.454Z,37.35
2022-12-16T05:48:11.400Z,36.45
2022-12-16T05:52:47.395Z,37.00
2022-12-16T05:57:23.457Z,34.33
2022-12-16T06:01:59.518Z,35.20
2022-12-16T06:06:35.571Z,35.92
2022-12-16T06:11:11.532Z,36.70
2022-12-16T06:15:47.292Z,36.20
2022-12-16T06:20:23.633Z,37.03
2022-12-16T06:24:59.722Z,34.85
2022-12-16T06:29:35.631Z,34.65
2022-12-16T06:34:11.543Z,34.30
2022-12-16T06:38:47.664Z,35.28
2022-12-16T06:43:23.642Z,36.05
2022-12-16T06:48:03.373Z,34.88
2022-12-16T06:52:39.323Z,35.50
2022-12-16T06:57:15.426Z,35.97
2022-12-16T07:01:51.474Z,35.60
2022-12-16T07:06:27.691Z,35.83
2022-12-16T07:11:16.228Z,35.40
2022-12-16T07:15:53.221Z,34.92
2022-12-16T07:20:29.272Z,37.63
2022-12-16T07:25:05.062Z,37.40
2022-12-16T07:29:41.201Z,36.78
2022-12-16T07:34:17.248Z,37.15
2022-12-16T07:38:53.087Z,37.63
2022-12-16T07:43:29.351Z,38.58
2022-12-16T07:48:09.641Z,37.42
2022-12-16T07:52:46.807Z,37.42
2022-12-16T07:57:22.948Z,36.35
2022-12-16T08:01:59.226Z,38.15
2022-12-16T08:06:40.177Z,38.35
2022-12-16T08:11:16.522Z,38.63
2022-12-16T08:15:52.489Z,38.45
2022-12-16T08:20:28.918Z,38.70
2022-12-16T08:25:04.780Z,40.17
2022-12-16T08:29:45.173Z,37.08
2022-12-16T08:34:21.598Z,38.53
2022-12-16T08:38:57.525Z,38.03
2022-12-16T08:43:34.619Z,39.80
2022-12-16T08:48:10.880Z,39.72
2022-12-16T08:52:46.812Z,37.20
2022-12-16T08:57:22.883Z,41.90
2022-12-16T09:01:58.861Z,40.38
2022-12-16T09:06:40.104Z,39.35
2022-12-16T09:11:20.236Z,40.85
2022-12-16T09:15:56.183Z,41.85
2022-12-16T09:20:32.643Z,43.22
2022-12-16T09:25:11.746Z,44.30
2022-12-16T09:29:47.557Z,42.63
2022-12-16T09:34:23.576Z,44.33
2022-12-16T09:38:59.633Z,43.58
2022-12-16T09:44:19.336Z,43.45
2022-12-16T09:49:04.029Z,49.55
2022-12-16T09:53:41.164Z,44.08
2022-12-16T09:58:17.511Z,44.70
2022-12-16T10:02:53.639Z,45.85
2022-12-16T10:07:37.572Z,47.10
2022-12-16T10:12:50.885Z,43.60
2022-12-16T10:17:34.851Z,44.63
2022-12-16T10:22:32.537Z,46.60
2022-12-16T10:27:13.979Z,44.65
2022-12-16T10:31:51.522Z,43.22
2022-12-16T10:36:37.629Z,45.63
2022-12-16T10:41:13.724Z,46.25
2022-12-16T10:46:01.773Z,44.45
2022-12-16T10:50:37.863Z,46.53
2022-12-16T10:55:33.695Z,45.70
2022-12-16T11:00:09.648Z,47.55
2022-12-16T11:04:55.754Z,45.25
2022-12-16T11:09:43.083Z,49.10
2022-12-16T11:15:12.391Z,48.15
2022-12-16T11:19:49.163Z,48.60
2022-12-16T11:24:36.375Z,49.55
2022-12-16T11:29:35.015Z,50.67
2022-12-16T11:34:13.671Z,47.65
2022-12-16T11:39:04.452Z,48.00
2022-12-16T11:43:42.864Z,57.05
2022-12-16T11:48:51.567Z,48.35
2022-12-16T11:53:44.889Z,48.13
2022-12-16T11:58:29.998Z,47.42
2022-12-16T12:03:25.413Z,44.50
2022-12-16T12:08:38.582Z,47.90
2022-12-16T12:13:22.393Z,47.17
2022-12-16T12:18:21.591Z,49.03
2022-12-16T12:22:58.363Z,50.97
2022-12-16T12:27:56.872Z,50.22
2022-12-16T12:32:58.517Z,48.85
2022-12-16T12:37:47.847Z,48.10
2022-12-16T12:42:49.748Z,50.40
2022-12-16T12:47:28.845Z,50.60
2022-12-16T12:52:45.240Z,63.55
2022-12-16T12:57:23.491Z,55.25
2022-12-16T13:02:01.712Z,54.05
2022-12-16T13:06:39.069Z,56.80
2022-12-16T13:11:34.976Z,56.65
2022-12-16T13:16:11.484Z,57.33
2022-12-16T13:20:55.200Z,57.35
2022-12-16T13:26:07.885Z,55.85
2022-12-16T13:30:52.127Z,55.13
2022-12-16T13:35:28.548Z,59.15
2022-12-16T13:40:23.812Z,56.60
2022-12-16T13:45:02.354Z,56.72
2022-12-16T13:49:56.223Z,58.55
2022-12-16T13:54:33.928Z,62.60
2022-12-16T13:59:12.606Z,61.87
2022-12-16T14:04:03.977Z,62.70
2022-12-16T14:08:43.161Z,70.90
2022-12-16T14:13:33.283Z,64.13
2022-12-16T14:18:43.770Z,58.30
2022-12-16T14:23:56.258Z,59.40
2022-12-16T14:28:50.583Z,59.90
2022-12-16T14:33:47.006Z,60.58
2022-12-16T14:38:41.685Z,63.95
2022-12-16T14:43:34.901Z,59.75
2022-12-16T14:48:11.216Z,60.90
2022-12-16T14:52:47.202Z,61.15
2022-12-16T14:57:24.058Z,61.88
2022-12-16T15:02:00.272Z,66.20
2022-12-16T15:06:46.009Z,86.97
2022-12-16T15:11:27.122Z,67.18
2022-12-16T15:16:07.662Z,65.28
2022-12-16T15:20:46.943Z,65.88
2022-12-16T15:25:23.204Z,69.63
2022-12-16T15:30:00.442Z,74.15
2022-12-16T15:34:43.184Z,69.97
2022-12-16T15:39:19.095Z,67.68
2022-12-16T15:43:58.524Z,63.67
2022-12-16T15:48:46.953Z,67.32
2022-12-16T15:53:47.211Z,66.43
2022-12-16T15:58:35.053Z,66.03
2022-12-16T16:03:11.250Z,66.15
2022-12-16T16:07:47.427Z,63.63
2022-12-16T16:12:26.699Z,72.07
2022-12-16T16:17:02.558Z,71.35
2022-12-16T16:21:39.311Z,65.85
2022-12-16T16:26:15.317Z,67.60
2022-12-16T16:30:51.439Z,67.15
2022-12-16T16:35:27.263Z,69.43
2022-12-16T16:40:03.820Z,66.80
2022-12-16T16:44:39.731Z,96.28
2022-12-16T16:49:15.716Z,77.13
2022-12-16T16:53:51.880Z,98.60
2022-12-16T16:58:46.275Z,76.82
2022-12-16T17:03:22.476Z,67.85
2022-12-16T17:07:58.825Z,68.38
2022-12-16T17:12:46.580Z,65.45
2022-12-16T17:17:23.486Z,66.60
2022-12-16T17:21:59.417Z,68.75
2022-12-16T17:26:35.283Z,62.72
2022-12-16T17:31:10.997Z,64.53
2022-12-16T17:35:47.208Z,63.85
2022-12-16T17:40:23.606Z,69.07
2022-12-16T17:44:59.693Z,102.55
2022-12-16T17:49:35.692Z,257.27
2022-12-16T17:54:19.190Z,72.57
2022-12-16T17:58:58.865Z,67.57
2022-12-16T18:03:54.616Z,63.65
2022-12-16T18:08:30.522Z,71.60
2022-12-16T18:13:06.355Z,83.82
2022-12-16T18:17:42.410Z,69.13
2022-12-16T18:22:18.327Z,68.40
2022-12-16T18:26:54.358Z,65.75
2022-12-16T18:31:30.792Z,67.88
2022-12-16T18:36:06.911Z,65.80
2022-12-16T18:40:42.766Z,67.03
2022-12-16T18:45:18.841Z,83.95
2022-12-16T18:49:54.754Z,78.45
2022-12-16T18:54:30.749Z,71.25
2022-12-16T18:59:06.660Z,73.07
2022-12-16T19:03:42.641Z,68.05
2022-12-16T19:08:18.586Z,67.47
2022-12-16T19:12:54.474Z,66.70
2022-12-16T19:17:30.437Z,69.22
2022-12-16T19:22:06.570Z,93.68
2022-12-16T19:26:42.733Z,75.07
2022-12-16T19:31:18.939Z,71.22
2022-12-16T19:35:55.064Z,73.93
2022-12-16T19:40:32.961Z,91.03
2022-12-16T19:45:09.269Z,79.10
2022-12-16T19:49:45.201Z,110.32
2022-12-16T19:54:21.141Z,102.93
2022-12-16T19:58:57.636Z,69.30
2022-12-16T20:03:37.190Z,72.20
2022-12-16T20:08:23.410Z,69.70
2022-12-16T20:12:59.401Z,71.50
2022-12-16T20:17:35.415Z,71.45
2022-12-16T20:27:07.653Z,67.93
2022-12-16T20:31:43.533Z,72.57
2022-12-16T20:36:21.644Z,72.10
2022-12-16T20:40:57.689Z,72.93
2022-12-16T20:45:34.208Z,68.45
2022-12-16T20:50:10.173Z,68.32
2022-12-16T20:54:46.161Z,69.80
2022-12-16T20:59:23.376Z,71.30
2022-12-16T21:03:59.232Z,75.47
2022-12-16T21:08:35.298Z,71.88
2022-12-16T21:13:11.232Z,75.53
2022-12-16T21:17:46.881Z,66.03
2022-12-16T21:22:22.985Z,65.18
2022-12-16T21:26:58.879Z,67.00
2022-12-16T21:31:34.854Z,67.25
2022-12-16T21:36:11.360Z,67.13
2022-12-16T21:40:47.428Z,61.53
2022-12-16T21:45:23.506Z,65.25
2022-12-16T21:49:59.575Z,64.05
2022-12-16T21:54:35.570Z,65.15
2022-12-16T21:59:11.450Z,61.92
2022-12-16T22:03:56.662Z,64.75
2022-12-16T22:08:32.797Z,63.75
2022-12-16T22:13:08.893Z,63.88
2022-12-16T22:17:45.529Z,61.17
2022-12-16T22:22:21.572Z,59.42
2022-12-16T22:26:57.455Z,54.65
2022-12-16T22:31:33.668Z,56.60
2022-12-16T22:36:09.596Z,55.45
2022-12-16T22:40:45.578Z,56.15
2022-12-16T22:45:21.667Z,54.70
2022-12-16T22:49:57.624Z,53.63
2022-12-16T22:54:33.612Z,55.88
2022-12-16T22:59:11.060Z,55.33
2022-12-16T23:03:46.924Z,56.50
2022-12-16T23:08:22.931Z,55.88
2022-12-16T23:12:58.778Z,54.42
2022-12-16T23:17:34.488Z,55.72
2022-12-16T23:22:10.585Z,56.22
2022-12-16T23:26:46.433Z,58.33
2022-12-16T23:31:22.348Z,59.08
2022-12-16T23:32:30.071Z,74.88
2022-12-16T23:35:58.196Z,58.78
2022-12-16T23:40:33.955Z,56.50
2022-12-16T23:45:09.920Z,57.85
2022-12-16T23:49:45.983Z,54.13
2022-12-16T23:54:29.500Z,56.22
2022-12-16T23:59:08.265Z,56.95
